Time;durP1;ratioP1;P1;durP2;ratioP2;P2;SDS_P1;SDS_P2;PMS_P1;PMS_P2;Temp;Humidity;BMP_temperature;BMP_pressure;BME280_temperature;BME280_humidity;BME280_pressure;Samples;Min_cycle;Max_cycle;Signal;HPM_P1;HPM_P2
2022/03/16 00:01:22;;;;;;;62.30;39.85;;;;;;;3.29;100.00;102386.50;5279792;28;20040;-83
2022/03/16 00:03:53;;;;;;;63.80;41.72;;;;;;;3.29;100.00;102375.94;5277544;28;20063;-82
2022/03/16 00:06:25;;;;;;;61.72;40.05;;;;;;;3.22;100.00;102376.16;5277798;28;20120;-83
2022/03/16 00:08:56;;;;;;;61.35;39.90;;;;;;;3.27;100.00;102381.25;5283560;28;20437;-83
2022/03/16 00:11:27;;;;;;;64.22;42.72;;;;;;;3.27;100.00;102383.91;5283993;28;20032;-83
2022/03/16 00:13:59;;;;;;;67.10;41.88;;;;;;;3.29;100.00;102395.25;5284029;28;20021;-83
2022/03/16 00:16:30;;;;;;;68.18;42.45;;;;;;;3.29;100.00;102389.13;5285350;28;20025;-83
2022/03/16 00:19:02;;;;;;;74.32;45.15;;;;;;;3.35;100.00;102396.81;5285003;28;20021;-83
2022/03/16 00:21:34;;;;;;;71.43;45.42;;;;;;;3.26;100.00;102383.97;5285120;28;20480;-83
2022/03/16 00:24:06;;;;;;;71.00;45.38;;;;;;;3.26;100.00;102382.19;5281730;28;20062;-83
2022/03/16 00:26:37;;;;;;;68.07;44.00;;;;;;;3.28;100.00;102384.75;5284519;28;20037;-83
2022/03/16 00:29:08;;;;;;;67.32;45.10;;;;;;;3.39;100.00;102398.41;5281796;28;20454;-83
2022/03/16 00:31:40;;;;;;;70.97;46.22;;;;;;;3.37;100.00;102393.19;5285365;28;20111;-83
2022/03/16 00:34:11;;;;;;;76.93;47.13;;;;;;;3.40;100.00;102403.63;5264888;28;20089;-83
2022/03/16 00:36:43;;;;;;;70.15;45.30;;;;;;;3.34;100.00;102398.56;5285057;28;20041;-83
2022/03/16 00:39:14;;;;;;;74.22;46.58;;;;;;;3.42;100.00;102398.31;5280181;28;20032;-83
2022/03/16 00:41:45;;;;;;;79.07;47.85;;;;;;;3.46;100.00;102397.25;5284001;28;20028;-83
2022/03/16 00:44:16;;;;;;;76.15;47.95;;;;;;;3.49;100.00;102396.28;5276540;28;20026;-83
2022/03/16 00:46:48;;;;;;;76.80;47.53;;;;;;;3.39;100.00;102369.41;5283561;28;20031;-83
2022/03/16 00:49:19;;;;;;;76.03;47.38;;;;;;;3.46;100.00;102391.13;5282927;28;20435;-83
2022/03/16 00:51:50;;;;;;;73.90;48.05;;;;;;;3.37;100.00;102372.09;5284452;28;20021;-83
2022/03/16 00:54:22;;;;;;;73.38;47.22;;;;;;;3.44;100.00;102390.31;5282068;28;20086;-82
2022/03/16 00:56:54;;;;;;;76.80;47.85;;;;;;;3.45;100.00;102392.03;5279916;28;20031;-83
2022/03/16 00:59:25;;;;;;;75.22;45.70;;;;;;;3.43;100.00;102391.25;5279975;28;20029;-82
2022/03/16 01:01:57;;;;;;;70.72;46.20;;;;;;;3.37;100.00;102392.34;5279270;28;20032;-83
2022/03/16 01:04:28;;;;;;;70.18;44.15;;;;;;;3.38;100.00;102388.78;5278684;28;20061;-84
2022/03/16 01:06:59;;;;;;;74.50;45.50;;;;;;;3.25;100.00;102383.09;5278406;28;20430;-83
2022/03/16 01:09:31;;;;;;;71.93;45.58;;;;;;;3.18;100.00;102387.75;5278787;28;20485;-83
2022/03/16 01:12:03;;;;;;;73.78;47.03;;;;;;;3.12;100.00;102384.47;5281328;28;20132;-84
2022/03/16 01:14:35;;;;;;;73.00;46.42;;;;;;;3.09;100.00;102372.28;5284266;28;20029;-83
2022/03/16 01:17:06;;;;;;;71.05;44.88;;;;;;;3.13;100.00;102381.78;5283092;28;20036;-84
2022/03/16 01:19:38;;;;;;;73.60;45.80;;;;;;;3.13;100.00;102380.94;5282392;28;20052;-83
2022/03/16 01:22:09;;;;;;;73.80;46.65;;;;;;;3.07;100.00;102368.84;5279681;28;20030;-84
2022/03/16 01:24:40;;;;;;;74.75;46.85;;;;;;;3.04;100.00;102366.31;5282306;28;20028;-84
2022/03/16 01:27:12;;;;;;;74.40;46.88;;;;;;;2.99;100.00;102365.63;5280554;28;20021;-83
2022/03/16 01:29:43;;;;;;;71.53;45.58;;;;;;;2.99;100.00;102369.09;5280962;28;20021;-84
2022/03/16 01:32:14;;;;;;;70.97;45.22;;;;;;;3.01;100.00;102375.16;5284984;28;20375;-83
2022/03/16 01:34:46;;;;;;;68.85;44.70;;;;;;;2.97;100.00;102376.22;5281498;28;20108;-83
2022/03/16 01:37:17;;;;;;;71.40;44.83;;;;;;;2.84;100.00;102354.72;5283302;28;20037;-83
2022/03/16 01:39:48;;;;;;;72.50;44.97;;;;;;;2.94;100.00;102378.94;5280066;28;20115;-83
2022/03/16 01:42:21;;;;;;;73.47;45.78;;;;;;;2.94;100.00;102371.03;5259879;28;20065;-83
2022/03/16 01:44:54;;;;;;;74.50;45.20;;;;;;;2.91;100.00;102365.03;5278578;28;20057;-83
2022/03/16 01:47:26;;;;;;;79.57;47.08;;;;;;;2.90;100.00;102347.50;5264351;28;20029;-84
2022/03/16 01:49:57;;;;;;;74.38;45.70;;;;;;;2.88;100.00;102344.06;5282312;28;20060;-83
2022/03/16 01:52:31;;;;;;;76.70;45.80;;;;;;;2.93;100.00;102345.63;5282080;28;20021;-83
2022/03/16 01:55:05;;;;;;;78.47;47.80;;;;;;;2.92;100.00;102341.25;5258717;28;20026;-83
2022/03/16 01:57:41;;;;;;;74.00;45.60;;;;;;;2.88;100.00;102347.56;5279935;28;20033;-83
2022/03/16 02:00:13;;;;;;;71.28;46.10;;;;;;;2.88;100.00;102349.34;5275625;28;20505;-83
2022/03/16 02:02:46;;;;;;;69.95;44.35;;;;;;;2.84;100.00;102340.69;5264043;28;20064;-83
2022/03/16 02:05:17;;;;;;;74.95;46.42;;;;;;;2.86;100.00;102338.84;5280014;28;20037;-83
2022/03/16 02:07:49;;;;;;;72.07;46.28;;;;;;;2.85;100.00;102339.75;5278357;28;20502;-83
2022/03/16 02:10:21;;;;;;;75.63;47.17;;;;;;;2.84;100.00;102341.53;5278510;28;20187;-84
2022/03/16 02:12:53;;;;;;;70.53;44.25;;;;;;;2.74;100.00;102329.59;5279451;28;20498;-84
2022/03/16 02:15:24;;;;;;;68.20;42.90;;;;;;;2.78;100.00;102325.94;5280832;28;20017;-83
2022/03/16 02:17:56;;;;;;;67.40;42.30;;;;;;;2.72;100.00;102313.00;5282982;28;20473;-84
2022/03/16 02:20:27;;;;;;;66.90;44.03;;;;;;;2.75;100.00;102319.91;5281180;28;20037;-84
2022/03/16 02:23:01;;;;;;;64.38;42.22;;;;;;;2.69;100.00;102331.53;5263456;28;20025;-84
2022/03/16 02:25:47;;;;;;;67.50;41.97;;;;;;;2.66;100.00;102326.38;5262956;28;20036;-84
2022/03/16 02:28:19;;;;;;;66.30;43.03;;;;;;;2.64;100.00;102330.84;5278962;28;20820;-83
2022/03/16 02:30:51;;;;;;;66.47;41.55;;;;;;;2.59;100.00;102331.00;5280305;28;20033;-83
2022/03/16 02:33:23;;;;;;;64.50;41.92;;;;;;;2.56;100.00;102333.75;5282817;28;20335;-83
2022/03/16 02:35:54;;;;;;;65.43;40.00;;;;;;;2.56;100.00;102333.75;5282942;28;20029;-84
2022/03/16 02:38:25;;;;;;;64.25;41.25;;;;;;;2.55;100.00;102336.44;5280237;28;20458;-84
2022/03/16 02:40:57;;;;;;;61.08;40.45;;;;;;;2.55;100.00;102333.81;5282547;28;20072;-84
2022/03/16 02:43:28;;;;;;;60.90;39.65;;;;;;;2.49;100.00;102340.16;5282262;28;20128;-84
2022/03/16 02:45:59;;;;;;;64.78;40.53;;;;;;;2.50;100.00;102322.56;5279702;28;20059;-83
2022/03/16 02:48:31;;;;;;;62.13;41.20;;;;;;;2.49;100.00;102328.75;5281466;28;20572;-84
2022/03/16 02:51:03;;;;;;;65.22;40.80;;;;;;;2.46;100.00;102324.47;5282623;28;20587;-84
2022/03/16 02:53:34;;;;;;;69.18;43.40;;;;;;;2.56;100.00;102323.22;5280069;28;20036;-84
2022/03/16 02:56:05;;;;;;;66.57;44.38;;;;;;;2.57;100.00;102311.75;5276937;28;20131;-84
2022/03/16 02:58:37;;;;;;;68.57;44.60;;;;;;;2.54;100.00;102311.00;5276749;28;20017;-84
2022/03/16 03:01:11;;;;;;;65.80;42.10;;;;;;;2.48;100.00;102306.81;5276110;28;20048;-84
2022/03/16 03:03:42;;;;;;;66.70;42.70;;;;;;;2.51;100.00;102312.00;5264482;28;20033;-84
2022/03/16 03:06:13;;;;;;;65.90;43.22;;;;;;;2.43;100.00;102306.13;5279706;28;20025;-83
2022/03/16 03:08:45;;;;;;;65.05;43.28;;;;;;;2.36;100.00;102296.72;5276308;28;20021;-84
2022/03/16 03:11:16;;;;;;;71.10;43.80;;;;;;;2.36;100.00;102308.09;5276255;28;20481;-84
2022/03/16 03:13:47;;;;;;;67.35;43.22;;;;;;;2.33;100.00;102313.50;5271930;28;41714;-83
2022/03/16 03:16:18;;;;;;;66.78;43.50;;;;;;;2.30;100.00;102296.91;5281909;28;20025;-84
2022/03/16 03:18:50;;;;;;;66.07;43.75;;;;;;;2.34;100.00;102309.94;5281844;28;20032;-84
2022/03/16 03:21:21;;;;;;;71.18;44.47;;;;;;;2.29;100.00;102316.28;5277921;28;20044;-84
2022/03/16 03:23:52;;;;;;;70.93;43.05;;;;;;;2.25;100.00;102321.66;5260192;28;20040;-84
2022/03/16 03:26:24;;;;;;;65.82;42.38;;;;;;;2.24;100.00;102319.94;5275446;28;20044;-84
2022/03/16 03:28:55;;;;;;;66.85;44.13;;;;;;;2.23;100.00;102320.84;5281276;28;20025;-84
2022/03/16 03:31:26;;;;;;;71.93;46.10;;;;;;;2.30;100.00;102324.13;5281100;28;20116;-84
2022/03/16 03:33:57;;;;;;;75.70;45.80;;;;;;;2.33;100.00;102312.63;5281207;28;20039;-84
2022/03/16 03:36:29;;;;;;;76.07;46.65;;;;;;;2.44;100.00;102321.88;5281022;28;20167;-84
2022/03/16 03:39:01;;;;;;;80.95;48.38;;;;;;;2.43;100.00;102312.25;5281625;28;20323;-84
2022/03/16 03:41:32;;;;;;;70.63;44.85;;;;;;;2.50;100.00;102306.78;5265629;28;20640;-84
2022/03/16 03:44:04;;;;;;;73.45;45.75;;;;;;;2.49;100.00;102315.56;5286651;28;20017;-84
2022/03/16 03:46:35;;;;;;;72.32;45.08;;;;;;;2.50;100.00;102315.53;5286748;28;20481;-84
2022/03/16 03:49:07;;;;;;;75.72;46.20;;;;;;;2.61;100.00;102315.13;5286909;28;20025;-84
2022/03/16 03:51:38;;;;;;;70.75;45.10;;;;;;;2.60;100.00;102311.66;5284228;28;41955;-84
2022/03/16 03:54:09;;;;;;;68.38;44.30;;;;;;;2.66;100.00;102313.19;5286654;28;20040;-84
2022/03/16 03:56:40;;;;;;;71.32;46.72;;;;;;;2.60;100.00;102308.16;5285588;28;20036;-84
2022/03/16 03:59:12;;;;;;;76.75;46.97;;;;;;;2.66;100.00;102313.19;5286524;28;20083;-83
2022/03/16 04:01:43;;;;;;;70.35;45.55;;;;;;;2.70;100.00;102320.09;5285708;28;20025;-84
2022/03/16 04:04:14;;;;;;;71.93;46.60;;;;;;;2.73;100.00;102324.38;5286608;28;20052;-83
2022/03/16 04:06:46;;;;;;;74.95;46.92;;;;;;;2.71;100.00;102306.00;5285604;28;20032;-83
2022/03/16 04:09:17;;;;;;;77.25;46.33;;;;;;;2.79;100.00;102318.91;5285689;28;20691;-84
2022/03/16 04:11:48;;;;;;;76.22;49.38;;;;;;;2.80;100.00;102308.28;5284924;28;25118;-84
2022/03/16 04:14:20;;;;;;;69.60;48.10;;;;;;;2.75;100.00;102310.25;5285944;28;20469;-83
2022/03/16 04:16:51;;;;;;;70.55;46.97;;;;;;;2.78;100.00;102307.47;5285396;28;20468;-83
2022/03/16 04:19:22;;;;;;;69.75;45.45;;;;;;;2.80;100.00;102310.91;5283691;28;20053;-83
2022/03/16 04:21:54;;;;;;;70.60;47.13;;;;;;;2.80;100.00;102308.28;5279167;28;20025;-84
2022/03/16 04:24:25;;;;;;;70.40;46.63;;;;;;;2.76;100.00;102301.41;5284619;28;20103;-83
2022/03/16 04:26:56;;;;;;;70.18;45.33;;;;;;;2.80;100.00;102313.56;5283969;28;20056;-83
2022/03/16 04:29:27;;;;;;;73.45;47.22;;;;;;;2.82;100.00;102309.13;5281417;28;20111;-84
2022/03/16 04:31:59;;;;;;;71.22;46.67;;;;;;;2.79;100.00;102303.94;5266357;28;20025;-84
2022/03/16 04:34:30;;;;;;;75.72;46.97;;;;;;;2.68;100.00;102299.97;5285586;28;20033;-84
2022/03/16 04:37:02;;;;;;;74.72;48.72;;;;;;;2.75;100.00;102312.00;5284117;28;20064;-83
2022/03/16 04:39:33;;;;;;;72.78;46.05;;;;;;;2.77;100.00;102303.16;5285323;28;20366;-83
2022/03/16 04:42:05;;;;;;;75.68;49.13;;;;;;;2.79;100.00;102305.72;5283282;28;20064;-84
2022/03/16 04:44:37;;;;;;;75.10;50.13;;;;;;;2.78;100.00;102304.00;5277920;28;20033;-84
2022/03/16 04:47:08;;;;;;;75.65;48.08;;;;;;;2.77;100.00;102304.91;5283174;28;20029;-83
2022/03/16 04:49:39;;;;;;;72.45;47.38;;;;;;;2.92;100.00;102314.03;5283408;28;29328;-84
2022/03/16 04:52:10;;;;;;;73.85;47.38;;;;;;;2.81;100.00;102306.53;5289976;28;20131;-83
2022/03/16 04:54:42;;;;;;;79.40;48.08;;;;;;;2.78;100.00;102310.13;5287206;28;20043;-83
2022/03/16 04:57:13;;;;;;;72.65;48.95;;;;;;;2.70;100.00;102303.41;5287628;28;20029;-83
2022/03/16 04:59:44;;;;;;;72.72;48.08;;;;;;;2.67;100.00;102304.41;5283304;28;20041;-83
2022/03/16 05:02:16;;;;;;;69.00;47.40;;;;;;;2.68;100.00;102310.53;5266397;28;20032;-83
2022/03/16 05:04:47;;;;;;;71.32;47.83;;;;;;;2.57;100.00;102306.50;5268046;28;20446;-84
2022/03/16 05:07:18;;;;;;;69.00;46.80;;;;;;;2.60;100.00;102308.16;5292755;28;20416;-83
2022/03/16 05:09:50;;;;;;;71.22;48.33;;;;;;;2.60;100.00;102314.28;5272577;28;36298;-84
2022/03/16 05:12:21;;;;;;;74.63;49.13;;;;;;;2.73;100.00;102311.22;5297584;28;20032;-83
2022/03/16 05:14:52;;;;;;;74.75;49.40;;;;;;;2.65;100.00;102304.44;5297712;28;20025;-83
2022/03/16 05:17:23;;;;;;;74.93;49.65;;;;;;;2.75;100.00;102305.00;5300637;28;20051;-83
2022/03/16 05:19:55;;;;;;;75.53;50.20;;;;;;;2.79;100.00;102298.69;5295186;28;20045;-84
2022/03/16 05:22:26;;;;;;;71.05;48.50;;;;;;;2.83;100.00;102299.41;5298795;28;20068;-84
2022/03/16 05:24:57;;;;;;;71.03;48.13;;;;;;;2.74;100.00;102282.19;5302387;28;20076;-84
2022/03/16 05:27:29;;;;;;;73.53;48.60;;;;;;;2.86;100.00;102285.25;5288487;28;20106;-84
2022/03/16 05:30:00;;;;;;;68.90;48.70;;;;;;;2.74;100.00;102271.63;5285549;28;20393;-83
2022/03/16 05:32:32;;;;;;;66.65;45.67;;;;;;;2.91;100.00;102291.22;5285283;28;20096;-84
2022/03/16 05:35:04;;;;;;;67.63;46.10;;;;;;;2.83;100.00;102291.50;5284811;28;20060;-84
2022/03/16 05:37:36;;;;;;;65.20;44.85;;;;;;;2.71;100.00;102278.78;5282898;28;20045;-83
2022/03/16 05:40:08;;;;;;;69.90;44.88;;;;;;;2.75;100.00;102294.44;5277025;28;20041;-84
2022/03/16 05:42:40;;;;;;;63.05;42.42;;;;;;;2.74;100.00;102291.88;5291652;28;20527;-84
2022/03/16 05:45:12;;;;;;;69.43;44.53;;;;;;;2.80;100.00;102296.88;5281511;28;20021;-83
2022/03/16 05:47:43;;;;;;;64.60;44.38;;;;;;;2.77;100.00;102300.50;5277773;28;20381;-83
2022/03/16 05:50:15;;;;;;;65.88;45.05;;;;;;;2.73;100.00;102290.97;5286419;28;20433;-84
2022/03/16 05:52:46;;;;;;;61.25;42.72;;;;;;;2.82;100.00;102301.22;5284050;28;20033;-84
2022/03/16 05:55:17;;;;;;;63.88;41.47;;;;;;;2.83;100.00;102313.44;5284100;28;20029;-84
2022/03/16 05:57:50;;;;;;;63.83;44.80;;;;;;;2.92;100.00;102314.03;5270918;28;20025;-84
2022/03/16 06:00:22;;;;;;;64.97;44.40;;;;;;;2.88;100.00;102307.16;5287324;28;20037;-83
2022/03/16 06:02:54;;;;;;;63.30;42.78;;;;;;;2.81;100.00;102280.19;5271989;28;20469;-84
2022/03/16 06:05:25;;;;;;;59.50;42.05;;;;;;;2.89;100.00;102288.63;5298132;28;20043;-84
2022/03/16 06:07:57;;;;;;;59.63;41.95;;;;;;;3.12;100.00;102322.06;5288771;28;20029;-84
2022/03/16 06:10:28;;;;;;;60.13;42.25;;;;;;;3.08;100.00;102307.25;5291664;28;20052;-85
2022/03/16 06:13:02;;;;;;;58.33;39.55;;;;;;;3.09;100.00;102306.34;5284913;28;20184;-82
2022/03/16 06:15:42;;;;;;;55.22;38.83;;;;;;;3.22;100.00;102320.78;5282453;28;20515;-84
2022/03/16 06:18:13;;;;;;;58.30;39.42;;;;;;;3.34;100.00;102321.25;5263689;28;20032;-84
2022/03/16 06:20:44;;;;;;;52.92;38.80;;;;;;;3.39;100.00;102320.13;5279565;28;20382;-84
2022/03/16 06:23:16;;;;;;;50.38;37.17;;;;;;;3.45;100.00;102318.19;5284122;28;20063;-84
2022/03/16 06:25:48;;;;;;;53.72;37.38;;;;;;;3.49;100.00;102315.38;5276637;28;20077;-84
2022/03/16 06:28:19;;;;;;;46.53;34.25;;;;;;;3.56;100.00;102326.53;5263657;28;20431;-83
2022/03/16 06:30:51;;;;;;;44.42;33.67;;;;;;;3.65;100.00;102322.69;5278353;28;20032;-83
2022/03/16 06:33:22;;;;;;;46.13;33.22;;;;;;;3.64;100.00;102318.31;5283352;28;20097;-84
2022/03/16 06:35:53;;;;;;;43.40;33.58;;;;;;;3.68;100.00;102322.53;5277798;28;20113;-83
2022/03/16 06:38:25;;;;;;;41.22;31.02;;;;;;;3.73;100.00;102312.66;5260067;28;20115;-85
2022/03/16 06:40:56;;;;;;;39.20;31.23;;;;;;;3.82;100.00;102328.09;5276919;28;20091;-84
2022/03/16 06:43:27;;;;;;;37.45;29.33;;;;;;;3.90;100.00;102326.03;5281713;28;20156;-84
2022/03/16 06:45:59;;;;;;;40.25;29.88;;;;;;;4.01;100.00;102303.59;5281112;28;20071;-84
2022/03/16 06:48:30;;;;;;;38.28;30.05;;;;;;;4.38;100.00;102321.38;5282903;28;20044;-84
2022/03/16 06:51:02;;;;;;;40.67;29.08;;;;;;;4.63;100.00;102296.53;5283326;28;20093;-84
2022/03/16 06:53:33;;;;;;;34.55;28.25;;;;;;;5.12;100.00;102312.81;5283685;28;20037;-85
2022/03/16 06:56:05;;;;;;;30.25;24.35;;;;;;;5.49;100.00;102300.50;5282018;28;20056;-85
2022/03/16 06:58:36;;;;;;;31.45;22.88;;;;;;;5.76;100.00;102295.63;5283046;28;20432;-84
2022/03/16 07:01:08;;;;;;;26.30;20.67;;;;;;;5.95;100.00;102276.19;5284789;28;20035;-84
2022/03/16 07:03:39;;;;;;;23.95;19.33;;;;;;;6.01;100.00;102281.19;5265068;28;20024;-84
2022/03/16 07:06:11;;;;;;;21.80;18.90;;;;;;;6.09;100.00;102278.19;5283246;28;20438;-84
2022/03/16 07:08:42;;;;;;;21.92;18.33;;;;;;;6.40;100.00;102275.66;5284831;28;20025;-84
2022/03/16 07:11:16;;;;;;;21.80;18.27;;;;;;;6.86;100.00;102269.69;5283742;28;20025;-84
2022/03/16 07:14:30;;;;;;;19.75;16.85;;;;;;;7.55;100.00;102273.78;5281405;28;20028;-84
2022/03/16 07:16:41;;;;;;;24.88;15.85;;;;;;;7.89;100.00;102263.03;5283453;28;20067;-83
2022/03/16 07:19:15;;;;;;;20.45;15.68;;;;;;;8.25;100.00;102273.25;5273665;28;20056;-84
2022/03/16 07:21:47;;;;;;;18.98;14.82;;;;;;;8.79;100.00;102271.81;5283669;28;20040;-84
2022/03/16 07:24:18;;;;;;;16.52;14.30;;;;;;;9.16;100.00;102266.81;5283357;28;20036;-84
2022/03/16 07:26:49;;;;;;;14.88;13.27;;;;;;;9.36;100.00;102266.41;5281539;28;20108;-84
2022/03/16 07:29:21;;;;;;;17.27;13.32;;;;;;;9.69;100.00;102256.28;5265809;28;20033;-84
2022/03/16 07:31:53;;;;;;;15.05;13.43;;;;;;;9.88;100.00;102251.41;5282853;28;20079;-84
2022/03/16 07:34:26;;;;;;;13.98;12.50;;;;;;;9.85;100.00;102248.97;5283469;28;20021;-84
2022/03/16 07:36:57;;;;;;;16.75;12.75;;;;;;;9.86;100.00;102244.50;5283285;28;20057;-84
2022/03/16 07:39:28;;;;;;;14.80;13.25;;;;;;;9.96;100.00;102233.09;5283173;28;20092;-83
2022/03/16 07:42:00;;;;;;;14.68;12.43;;;;;;;10.48;100.00;102235.81;5262792;28;20040;-84
2022/03/16 07:44:31;;;;;;;15.85;12.55;;;;;;;11.06;100.00;102239.69;5264758;28;20029;-83
2022/03/16 07:47:03;;;;;;;13.50;12.10;;;;;;;11.44;100.00;102229.81;5281384;28;20087;-84
2022/03/16 07:49:40;;;;;;;13.65;12.25;;;;;;;11.57;100.00;102241.28;5277864;28;20041;-85
2022/03/16 07:52:11;;;;;;;17.08;12.35;;;;;;;11.34;100.00;102233.16;5281004;28;20477;-84
2022/03/16 07:54:42;;;;;;;20.10;12.85;;;;;;;11.33;100.00;102233.28;5283049;28;20036;-84
2022/03/16 07:57:16;;;;;;;15.05;12.43;;;;;;;11.26;100.00;102245.38;5268780;28;20022;-84
2022/03/16 07:59:47;;;;;;;13.40;12.00;;;;;;;11.36;100.00;102238.41;5261402;28;20026;-84
2022/03/16 08:02:18;;;;;;;14.38;11.50;;;;;;;11.18;100.00;102248.59;5249509;28;20036;-84
2022/03/16 08:04:50;;;;;;;16.48;12.30;;;;;;;11.19;100.00;102247.63;5282648;28;20030;-84
2022/03/16 08:07:21;;;;;;;13.85;12.05;;;;;;;11.76;100.00;102243.41;5283034;28;20035;-83
2022/03/16 08:09:52;;;;;;;14.43;11.85;;;;;;;11.81;100.00;102233.22;5264588;28;20025;-84
2022/03/16 08:12:25;;;;;;;13.20;11.85;;;;;;;12.03;100.00;102245.00;5279164;28;20084;-84
2022/03/16 08:14:56;;;;;;;13.77;12.23;;;;;;;11.88;100.00;102247.81;5282705;28;20032;-84
2022/03/16 08:17:27;;;;;;;14.00;12.57;;;;;;;11.45;100.00;102239.53;5282450;28;20025;-84
2022/03/16 08:19:59;;;;;;;15.43;12.80;;;;;;;11.34;100.00;102235.84;5282783;28;20021;-84
2022/03/16 08:22:32;;;;;;;15.85;12.73;;;;;;;11.88;100.00;102239.78;5282399;28;20112;-84
2022/03/16 08:25:07;;;;;;;14.35;12.85;;;;;;;12.42;100.00;102240.19;5263315;28;20322;-83
2022/03/16 08:27:39;;;;;;;14.85;12.15;;;;;;;13.05;100.00;102241.38;5265498;28;20037;-84
2022/03/16 08:30:11;;;;;;;13.38;12.02;;;;;;;13.72;100.00;102241.31;5286152;28;20117;-84
2022/03/16 08:32:42;;;;;;;14.23;12.23;;;;;;;14.09;100.00;102240.88;5285783;28;20433;-84
2022/03/16 08:35:14;;;;;;;13.43;12.02;;;;;;;14.78;98.33;102247.47;5284323;28;40865;-84
2022/03/16 08:37:46;;;;;;;12.55;11.20;;;;;;;15.77;93.03;102237.59;5285615;28;20033;-84
2022/03/16 08:40:17;;;;;;;13.20;11.02;;;;;;;16.21;75.10;102237.94;5285632;28;20201;-84
2022/03/16 08:42:49;;;;;;;12.77;11.50;;;;;;;16.72;74.58;102241.16;5284845;28;20025;-84
2022/03/16 08:45:21;;;;;;;12.23;10.98;;;;;;;16.95;67.46;102230.00;5282107;28;20025;-85
2022/03/16 08:47:52;;;;;;;12.75;11.52;;;;;;;16.94;63.08;102247.22;5264682;28;20935;-84
2022/03/16 08:50:24;;;;;;;13.13;11.93;;;;;;;16.51;63.04;102243.25;5264478;28;20026;-84
2022/03/16 08:52:56;;;;;;;13.23;11.85;;;;;;;17.27;60.80;102251.13;5264336;28;20046;-84
2022/03/16 08:55:27;;;;;;;13.20;11.90;;;;;;;18.31;57.09;102253.19;5272533;28;20869;-84
2022/03/16 08:57:59;;;;;;;13.70;12.30;;;;;;;18.43;51.32;102256.47;5266820;28;20025;-84
2022/03/16 09:00:30;;;;;;;13.77;12.30;;;;;;;19.00;50.04;102266.72;5285930;28;20040;-84
2022/03/16 09:03:02;;;;;;;12.90;11.57;;;;;;;19.46;48.49;102269.06;5286083;28;20472;-84
2022/03/16 09:05:34;;;;;;;13.68;11.77;;;;;;;19.95;46.85;102266.41;5285015;28;20021;-85
2022/03/16 09:08:05;;;;;;;13.35;12.00;;;;;;;20.78;46.29;102262.50;5285301;28;20025;-85
2022/03/16 09:10:38;;;;;;;19.55;12.13;;;;;;;19.83;45.71;102265.06;5284957;28;20377;-85
2022/03/16 09:13:09;;;;;;;13.68;12.32;;;;;;;19.96;45.44;102257.25;5285115;28;20021;-84
2022/03/16 09:15:43;;;;;;;14.60;12.02;;;;;;;19.74;44.74;102256.09;5266859;28;20013;-85
2022/03/16 09:18:14;;;;;;;13.20;11.90;;;;;;;21.49;43.39;102254.38;5266397;28;20014;-84
2022/03/16 09:20:46;;;;;;;13.50;11.98;;;;;;;22.01;41.06;102246.47;5284679;28;20033;-84
2022/03/16 09:23:18;;;;;;;15.70;12.60;;;;;;;22.69;39.24;102246.44;5285175;28;20033;-85
2022/03/16 09:25:50;;;;;;;13.85;12.45;;;;;;;23.31;38.33;102250.56;5281423;28;20119;-84
2022/03/16 09:28:21;;;;;;;13.27;11.98;;;;;;;24.08;36.59;102246.25;5284764;28;20103;-85
2022/03/16 09:30:53;;;;;;;14.25;12.70;;;;;;;23.75;35.93;102241.31;5284048;28;20111;-84
2022/03/16 09:33:24;;;;;;;13.88;12.40;;;;;;;22.40;37.54;102229.09;5266477;28;20029;-84
2022/03/16 09:35:56;;;;;;;13.43;12.02;;;;;;;23.06;36.95;102240.03;5266567;28;20116;-84
2022/03/16 09:38:27;;;;;;;13.98;12.50;;;;;;;22.10;38.16;102226.31;5281344;28;20455;-85
2022/03/16 09:41:00;;;;;;;14.35;12.02;;;;;;;23.00;37.98;102236.16;5275870;28;20112;-85
2022/03/16 09:43:33;;;;;;;13.77;12.45;;;;;;;22.56;38.11;102225.34;5280969;28;20106;-85
2022/03/16 09:46:04;;;;;;;14.35;12.35;;;;;;;23.35;37.10;102228.19;5284797;28;20441;-85
2022/03/16 09:48:42;;;;;;;14.07;12.13;;;;;;;23.55;35.35;102224.81;5284702;28;20035;-85
2022/03/16 09:51:17;;;;;;;13.27;11.88;;;;;;;23.72;35.81;102226.22;5284422;28;20106;-85
2022/03/16 09:53:48;;;;;;;13.35;12.10;;;;;;;24.31;34.29;102203.19;5283578;28;20484;-85
2022/03/16 09:56:20;;;;;;;15.50;12.00;;;;;;;24.66;33.20;102221.44;5273341;28;20024;-85
2022/03/16 09:58:51;;;;;;;13.23;11.75;;;;;;;24.40;33.21;102230.28;5284140;28;20049;-85
2022/03/16 10:01:22;;;;;;;13.57;12.18;;;;;;;24.23;34.71;102218.84;5284637;28;20048;-86
2022/03/16 10:03:59;;;;;;;13.52;11.38;;;;;;;25.54;33.91;102212.44;5261079;28;20094;-83
2022/03/16 10:06:35;;;;;;;14.75;11.30;;;;;;;26.42;32.01;102207.53;5265630;28;20052;-84
2022/03/16 10:15:10;;;;;;;13.02;11.63;;;;;;;24.81;34.41;102200.31;5283864;28;20025;-83
2022/03/16 10:17:59;;;;;;;13.48;12.07;;;;;;;26.22;32.04;102209.47;5282896;28;20063;-83
2022/03/16 10:20:40;;;;;;;13.25;11.48;;;;;;;26.22;31.12;102190.34;5282802;28;20059;-83
2022/03/16 10:23:28;;;;;;;13.13;11.40;;;;;;;26.16;31.53;102194.78;5283488;28;20025;-83
2022/03/16 10:26:00;;;;;;;11.40;10.27;;;;;;;26.65;31.25;102194.41;5263987;28;20024;-83
2022/03/16 10:28:32;;;;;;;13.00;11.60;;;;;;;25.72;31.34;102195.41;5282479;28;20025;-83
2022/03/16 10:31:07;;;;;;;13.10;11.80;;;;;;;26.21;31.39;102200.44;5264641;28;20032;-83
2022/03/16 10:33:56;;;;;;;11.85;10.75;;;;;;;26.89;30.63;102188.19;5283023;28;20032;-83
2022/03/16 10:36:27;;;;;;;11.02;9.93;;;;;;;26.63;30.85;102185.59;5282967;28;20028;-83
2022/03/16 10:39:02;;;;;;;10.93;9.93;;;;;;;26.69;30.59;102188.31;5283413;28;20033;-83
2022/03/16 10:47:21;;;;;;;9.60;8.80;;;;;;;26.90;30.38;102178.09;5279137;28;20029;-83
2022/03/16 10:50:09;;;;;;;9.88;8.98;;;;;;;26.39;32.30;102168.84;5282468;28;20025;-83
2022/03/16 10:52:41;;;;;;;10.57;9.35;;;;;;;24.08;33.63;102165.31;5283124;28;20536;-83
2022/03/16 10:55:13;;;;;;;12.10;10.75;;;;;;;26.22;31.50;102173.94;5279945;28;20021;-83
2022/03/16 10:57:46;;;;;;;12.30;10.77;;;;;;;25.66;31.35;102176.09;5303865;28;20440;-83
2022/03/16 11:00:18;;;;;;;10.13;9.10;;;;;;;25.65;31.79;102181.78;5297856;28;20061;-83
2022/03/16 11:02:50;;;;;;;10.18;9.18;;;;;;;25.81;31.74;102184.06;5272296;28;20119;-82
2022/03/16 11:05:22;;;;;;;10.57;9.57;;;;;;;26.14;31.02;102174.16;5283002;28;20017;-84
2022/03/16 11:07:55;;;;;;;10.05;9.13;;;;;;;24.29;32.56;102169.00;5282420;28;20112;-83
2022/03/16 11:10:26;;;;;;;11.15;9.52;;;;;;;23.24;35.33;102167.97;5282574;28;20044;-83
2022/03/16 11:15:50;;;;;;;10.35;9.40;;;;;;;21.78;37.64;102179.44;5261396;28;20033;-82
2022/03/16 11:18:25;;;;;;;11.10;10.10;;;;;;;20.75;39.58;102167.97;5261785;28;20010;-82
2022/03/16 11:21:04;;;;;;;10.48;9.57;;;;;;;20.30;42.15;102184.91;5261817;28;20037;-82
2022/03/16 11:27:07;;;;;;;11.25;10.20;;;;;;;21.20;41.19;102176.34;5281920;28;20480;-83
2022/03/16 11:30:06;;;;;;;11.00;9.97;;;;;;;21.13;42.49;102181.66;5266566;28;20079;-83
2022/03/16 11:32:43;;;;;;;11.93;10.20;;;;;;;22.16;39.61;102192.13;5274990;28;20032;-83
2022/03/16 11:35:17;;;;;;;9.93;9.00;;;;;;;21.88;40.26;102179.19;5292084;28;20025;-83
2022/03/16 11:37:51;;;;;;;10.90;9.48;;;;;;;22.75;38.54;102185.84;5273024;28;20053;-83
2022/03/16 11:40:25;;;;;;;11.95;9.93;;;;;;;21.49;40.26;102191.94;5270254;28;40786;-83
2022/03/16 11:43:05;;;;;;;12.75;9.90;;;;;;;21.24;40.93;102183.09;5303311;28;20082;-83
2022/03/16 11:45:57;;;;;;;11.27;9.38;;;;;;;20.89;41.90;102189.94;5284525;28;20040;-83
2022/03/16 11:48:31;;;;;;;12.60;10.15;;;;;;;20.00;44.29;102184.63;5275425;28;20128;-84
2022/03/16 11:51:14;;;;;;;12.95;10.13;;;;;;;20.14;45.03;102181.25;5273112;28;20477;-83